sensor_id;sensor_type;location;lat;lon;timestamp;temperature;humidity
9033;DHT22;4551;53.164;8.210;2022-10-04T00:00:59;12.00;99.90
9033;DHT22;4551;53.164;8.210;2022-10-04T00:03:30;11.90;99.90
9033;DHT22;4551;53.164;8.210;2022-10-04T00:06:00;12.00;99.90
9033;DHT22;4551;53.164;8.210;2022-10-04T00:08:30;11.90;99.90
9033;DHT22;4551;53.164;8.210;2022-10-04T00:11:03;11.90;99.90
9033;DHT22;4551;53.164;8.210;2022-10-04T00:13:31;11.90;99.90
9033;DHT22;4551;53.164;8.210;2022-10-04T00:16:00;11.90;99.90
9033;DHT22;4551;53.164;8.210;2022-10-04T00:18:29;11.90;99.90
9033;DHT22;4551;53.164;8.210;2022-10-04T00:21:00;11.90;99.90
9033;DHT22;4551;53.164;8.210;2022-10-04T00:23:39;11.90;99.90
9033;DHT22;4551;53.164;8.210;2022-10-04T00:26:10;11.80;99.90
9033;DHT22;4551;53.164;8.210;2022-10-04T00:28:43;11.80;99.90
9033;DHT22;4551;53.164;8.210;2022-10-04T00:31:16;11.80;99.90
9033;DHT22;4551;53.164;8.210;2022-10-04T00:33:45;11.80;99.90
9033;DHT22;4551;53.164;8.210;2022-10-04T00:36:33;11.80;99.90
9033;DHT22;4551;53.164;8.210;2022-10-04T00:39:23;11.80;99.90
9033;DHT22;4551;53.164;8.210;2022-10-04T00:41:54;11.80;99.90
9033;DHT22;4551;53.164;8.210;2022-10-04T00:44:25;11.80;99.90
9033;DHT22;4551;53.164;8.210;2022-10-04T00:46:55;11.80;99.90
9033;DHT22;4551;53.164;8.210;2022-10-04T00:49:24;11.70;99.90
9033;DHT22;4551;53.164;8.210;2022-10-04T00:51:55;11.70;99.90
9033;DHT22;4551;53.164;8.210;2022-10-04T00:54:27;11.70;99.90
9033;DHT22;4551;53.164;8.210;2022-10-04T00:56:58;11.80;99.90
9033;DHT22;4551;53.164;8.210;2022-10-04T00:59:30;11.70;99.90
9033;DHT22;4551;53.164;8.210;2022-10-04T01:02:02;11.70;99.90
9033;DHT22;4551;53.164;8.210;2022-10-04T01:04:38;11.80;99.90
9033;DHT22;4551;53.164;8.210;2022-10-04T01:07:09;11.80;99.90
9033;DHT22;4551;53.164;8.210;2022-10-04T01:09:42;11.80;99.90
9033;DHT22;4551;53.164;8.210;2022-10-04T01:12:13;11.80;99.90
9033;DHT22;4551;53.164;8.210;2022-10-04T01:14:46;11.70;99.90
9033;DHT22;4551;53.164;8.210;2022-10-04T01:17:16;11.70;99.90
9033;DHT22;4551;53.164;8.210;2022-10-04T01:19:48;11.70;99.90
9033;DHT22;4551;53.164;8.210;2022-10-04T01:22:31;11.70;99.90
9033;DHT22;4551;53.164;8.210;2022-10-04T01:25:00;11.70;99.90
9033;DHT22;4551;53.164;8.210;2022-10-04T01:27:35;11.70;99.90
9033;DHT22;4551;53.164;8.210;2022-10-04T01:30:05;11.70;99.90
9033;DHT22;4551;53.164;8.210;2022-10-04T01:32:35;11.70;99.90
9033;DHT22;4551;53.164;8.210;2022-10-04T01:35:04;11.70;99.90
9033;DHT22;4551;53.164;8.210;2022-10-04T01:37:34;11.60;99.90
9033;DHT22;4551;53.164;8.210;2022-10-04T01:40:03;11.60;99.90
9033;DHT22;4551;53.164;8.210;2022-10-04T01:42:31;11.60;99.90
9033;DHT22;4551;53.164;8.210;2022-10-04T01:45:01;11.60;99.90
9033;DHT22;4551;53.164;8.210;2022-10-04T01:47:32;11.60;99.90
9033;DHT22;4551;53.164;8.210;2022-10-04T01:50:02;11.50;99.90
9033;DHT22;4551;53.164;8.210;2022-10-04T01:52:35;11.50;99.90
9033;DHT22;4551;53.164;8.210;2022-10-04T01:55:05;11.50;99.90
9033;DHT22;4551;53.164;8.210;2022-10-04T01:57:34;11.50;99.90
9033;DHT22;4551;53.164;8.210;2022-10-04T02:00:04;11.50;99.90
9033;DHT22;4551;53.164;8.210;2022-10-04T02:02:33;11.40;99.90
9033;DHT22;4551;53.164;8.210;2022-10-04T02:05:04;11.40;99.90
9033;DHT22;4551;53.164;8.210;2022-10-04T02:07:34;11.50;99.90
9033;DHT22;4551;53.164;8.210;2022-10-04T02:10:05;11.40;99.90
9033;DHT22;4551;53.164;8.210;2022-10-04T02:12:33;11.40;99.90
9033;DHT22;4551;53.164;8.210;2022-10-04T02:15:02;11.40;99.90
9033;DHT22;4551;53.164;8.210;2022-10-04T02:17:32;11.40;99.90
9033;DHT22;4551;53.164;8.210;2022-10-04T02:20:01;11.40;99.90
9033;DHT22;4551;53.164;8.210;2022-10-04T02:22:37;11.40;99.90
9033;DHT22;4551;53.164;8.210;2022-10-04T02:25:08;11.40;99.90
9033;DHT22;4551;53.164;8.210;2022-10-04T02:27:36;11.40;99.90
9033;DHT22;4551;53.164;8.210;2022-10-04T02:30:05;11.50;99.90
9033;DHT22;4551;53.164;8.210;2022-10-04T02:32:34;11.50;99.90
9033;DHT22;4551;53.164;8.210;2022-10-04T02:35:19;11.50;99.90
9033;DHT22;4551;53.164;8.210;2022-10-04T02:37:51;11.50;99.90
9033;DHT22;4551;53.164;8.210;2022-10-04T02:40:21;11.50;99.90
9033;DHT22;4551;53.164;8.210;2022-10-04T02:42:53;11.50;99.90
9033;DHT22;4551;53.164;8.210;2022-10-04T02:45:23;11.50;99.90
9033;DHT22;4551;53.164;8.210;2022-10-04T02:47:54;11.60;99.90
9033;DHT22;4551;53.164;8.210;2022-10-04T02:50:27;11.60;99.90
9033;DHT22;4551;53.164;8.210;2022-10-04T02:53:00;11.60;99.90
9033;DHT22;4551;53.164;8.210;2022-10-04T02:55:30;11.60;99.90
9033;DHT22;4551;53.164;8.210;2022-10-04T02:57:58;11.60;99.90
9033;DHT22;4551;53.164;8.210;2022-10-04T03:00:27;11.60;99.90
9033;DHT22;4551;53.164;8.210;2022-10-04T03:03:10;11.60;99.90
9033;DHT22;4551;53.164;8.210;2022-10-04T03:05:42;11.60;99.90
9033;DHT22;4551;53.164;8.210;2022-10-04T03:08:12;11.60;99.90
9033;DHT22;4551;53.164;8.210;2022-10-04T03:10:41;11.50;99.90
9033;DHT22;4551;53.164;8.210;2022-10-04T03:13:09;11.50;99.90
9033;DHT22;4551;53.164;8.210;2022-10-04T03:15:39;11.50;99.90
9033;DHT22;4551;53.164;8.210;2022-10-04T03:18:07;11.50;99.90
9033;DHT22;4551;53.164;8.210;2022-10-04T03:20:36;11.50;99.90
9033;DHT22;4551;53.164;8.210;2022-10-04T03:23:04;11.50;99.90
9033;DHT22;4551;53.164;8.210;2022-10-04T03:25:37;11.50;99.90
9033;DHT22;4551;53.164;8.210;2022-10-04T03:28:07;11.40;99.90
9033;DHT22;4551;53.164;8.210;2022-10-04T03:30:35;11.40;99.90
9033;DHT22;4551;53.164;8.210;2022-10-04T03:33:03;11.40;99.90
9033;DHT22;4551;53.164;8.210;2022-10-04T03:35:32;11.40;99.90
9033;DHT22;4551;53.164;8.210;2022-10-04T03:38:03;11.30;99.90
9033;DHT22;4551;53.164;8.210;2022-10-04T03:40:32;11.30;99.90
9033;DHT22;4551;53.164;8.210;2022-10-04T03:43:02;11.30;99.90
9033;DHT22;4551;53.164;8.210;2022-10-04T03:45:31;11.30;99.90
9033;DHT22;4551;53.164;8.210;2022-10-04T03:48:01;11.30;99.90
9033;DHT22;4551;53.164;8.210;2022-10-04T03:50:32;11.60;99.90
9033;DHT22;4551;53.164;8.210;2022-10-04T03:53:02;11.30;99.90
9033;DHT22;4551;53.164;8.210;2022-10-04T03:55:35;11.30;99.90
9033;DHT22;4551;53.164;8.210;2022-10-04T03:58:06;11.30;99.90
9033;DHT22;4551;53.164;8.210;2022-10-04T04:00:36;11.30;99.90
9033;DHT22;4551;53.164;8.210;2022-10-04T04:03:06;11.40;99.90
9033;DHT22;4551;53.164;8.210;2022-10-04T04:05:36;11.30;99.90
9033;DHT22;4551;53.164;8.210;2022-10-04T04:08:10;11.40;99.90
9033;DHT22;4551;53.164;8.210;2022-10-04T04:10:41;11.40;99.90
9033;DHT22;4551;53.164;8.210;2022-10-04T04:13:14;11.40;99.90
9033;DHT22;4551;53.164;8.210;2022-10-04T04:15:43;11.40;99.90
9033;DHT22;4551;53.164;8.210;2022-10-04T04:18:13;11.40;99.90
9033;DHT22;4551;53.164;8.210;2022-10-04T04:20:42;11.40;99.90
9033;DHT22;4551;53.164;8.210;2022-10-04T04:23:16;11.40;99.90
9033;DHT22;4551;53.164;8.210;2022-10-04T04:25:47;11.40;99.90
9033;DHT22;4551;53.164;8.210;2022-10-04T04:28:22;11.40;99.90
9033;DHT22;4551;53.164;8.210;2022-10-04T04:30:52;11.40;99.90
9033;DHT22;4551;53.164;8.210;2022-10-04T04:33:22;11.40;99.90
9033;DHT22;4551;53.164;8.210;2022-10-04T04:35:54;11.40;99.90
9033;DHT22;4551;53.164;8.210;2022-10-04T04:38:22;11.40;99.90
9033;DHT22;4551;53.164;8.210;2022-10-04T04:40:51;11.40;99.90
9033;DHT22;4551;53.164;8.210;2022-10-04T04:43:24;11.40;99.90
9033;DHT22;4551;53.164;8.210;2022-10-04T04:45:53;11.40;99.90
9033;DHT22;4551;53.164;8.210;2022-10-04T04:48:44;11.40;99.90
9033;DHT22;4551;53.164;8.210;2022-10-04T04:51:13;11.40;99.90
9033;DHT22;4551;53.164;8.210;2022-10-04T04:53:45;11.40;99.90
9033;DHT22;4551;53.164;8.210;2022-10-04T04:56:15;11.40;99.90
9033;DHT22;4551;53.164;8.210;2022-10-04T04:58:46;11.30;99.90
9033;DHT22;4551;53.164;8.210;2022-10-04T05:01:16;11.30;99.90
9033;DHT22;4551;53.164;8.210;2022-10-04T05:03:58;11.30;99.90
9033;DHT22;4551;53.164;8.210;2022-10-04T05:06:26;11.30;99.90
9033;DHT22;4551;53.164;8.210;2022-10-04T05:08:54;11.20;99.90
9033;DHT22;4551;53.164;8.210;2022-10-04T05:11:23;11.30;99.90
9033;DHT22;4551;53.164;8.210;2022-10-04T05:13:55;11.20;99.90
9033;DHT22;4551;53.164;8.210;2022-10-04T05:16:24;11.20;99.90
9033;DHT22;4551;53.164;8.210;2022-10-04T05:18:54;11.20;99.90
9033;DHT22;4551;53.164;8.210;2022-10-04T05:21:24;11.20;99.90
9033;DHT22;4551;53.164;8.210;2022-10-04T05:23:54;11.20;99.90
9033;DHT22;4551;53.164;8.210;2022-10-04T05:26:24;11.20;99.90
9033;DHT22;4551;53.164;8.210;2022-10-04T05:28:54;11.20;99.90
9033;DHT22;4551;53.164;8.210;2022-10-04T05:31:34;11.20;99.90
9033;DHT22;4551;53.164;8.210;2022-10-04T05:34:14;11.10;99.90
9033;DHT22;4551;53.164;8.210;2022-10-04T05:36:51;11.10;99.90
9033;DHT22;4551;53.164;8.210;2022-10-04T05:39:23;11.10;99.90
9033;DHT22;4551;53.164;8.210;2022-10-04T05:42:02;11.10;99.90
9033;DHT22;4551;53.164;8.210;2022-10-04T05:44:36;11.10;99.90
9033;DHT22;4551;53.164;8.210;2022-10-04T05:47:04;11.10;99.90
9033;DHT22;4551;53.164;8.210;2022-10-04T05:49:33;11.10;99.90
9033;DHT22;4551;53.164;8.210;2022-10-04T05:52:05;11.00;99.90
9033;DHT22;4551;53.164;8.210;2022-10-04T05:54:39;11.00;99.90
9033;DHT22;4551;53.164;8.210;2022-10-04T05:57:17;10.90;99.90
9033;DHT22;4551;53.164;8.210;2022-10-04T05:59:56;10.90;99.90
9033;DHT22;4551;53.164;8.210;2022-10-04T06:02:33;10.90;99.90
9033;DHT22;4551;53.164;8.210;2022-10-04T06:05:08;10.90;99.90
9033;DHT22;4551;53.164;8.210;2022-10-04T06:07:39;10.90;99.90
9033;DHT22;4551;53.164;8.210;2022-10-04T06:12:52;10.90;99.90
9033;DHT22;4551;53.164;8.210;2022-10-04T06:15:38;11.00;99.90
9033;DHT22;4551;53.164;8.210;2022-10-04T06:18:20;10.90;99.90
9033;DHT22;4551;53.164;8.210;2022-10-04T06:20:57;11.00;99.90
9033;DHT22;4551;53.164;8.210;2022-10-04T06:23:29;10.90;99.90
9033;DHT22;4551;53.164;8.210;2022-10-04T06:25:58;11.00;99.90
9033;DHT22;4551;53.164;8.210;2022-10-04T06:28:28;11.00;99.90
9033;DHT22;4551;53.164;8.210;2022-10-04T06:31:17;11.00;99.90
9033;DHT22;4551;53.164;8.210;2022-10-04T06:33:53;11.00;99.90
9033;DHT22;4551;53.164;8.210;2022-10-04T06:36:32;11.00;99.90
9033;DHT22;4551;53.164;8.210;2022-10-04T06:39:11;11.10;99.90
9033;DHT22;4551;53.164;8.210;2022-10-04T06:41:44;11.00;99.90
9033;DHT22;4551;53.164;8.210;2022-10-04T06:44:18;11.10;99.90
9033;DHT22;4551;53.164;8.210;2022-10-04T06:46:52;11.10;99.90
9033;DHT22;4551;53.164;8.210;2022-10-04T06:52:12;11.10;99.90
9033;DHT22;4551;53.164;8.210;2022-10-04T06:54:49;11.10;99.90
9033;DHT22;4551;53.164;8.210;2022-10-04T06:57:22;11.20;99.90
9033;DHT22;4551;53.164;8.210;2022-10-04T06:59:55;11.20;99.90
9033;DHT22;4551;53.164;8.210;2022-10-04T07:02:30;11.20;99.90
9033;DHT22;4551;53.164;8.210;2022-10-04T07:05:01;11.30;99.90
9033;DHT22;4551;53.164;8.210;2022-10-04T07:07:35;11.30;99.90
9033;DHT22;4551;53.164;8.210;2022-10-04T07:10:08;11.30;99.90
9033;DHT22;4551;53.164;8.210;2022-10-04T07:12:41;11.40;99.90
9033;DHT22;4551;53.164;8.210;2022-10-04T07:15:13;11.40;99.90
9033;DHT22;4551;53.164;8.210;2022-10-04T07:17:44;11.50;99.90
9033;DHT22;4551;53.164;8.210;2022-10-04T07:20:15;11.50;99.90
9033;DHT22;4551;53.164;8.210;2022-10-04T07:22:45;11.60;99.90
9033;DHT22;4551;53.164;8.210;2022-10-04T07:25:18;11.60;99.90
9033;DHT22;4551;53.164;8.210;2022-10-04T07:27:49;11.70;99.90
9033;DHT22;4551;53.164;8.210;2022-10-04T07:30:42;11.70;99.90
9033;DHT22;4551;53.164;8.210;2022-10-04T07:33:12;11.80;99.90
9033;DHT22;4551;53.164;8.210;2022-10-04T07:35:43;11.90;99.90
9033;DHT22;4551;53.164;8.210;2022-10-04T07:38:13;12.00;99.90
9033;DHT22;4551;53.164;8.210;2022-10-04T07:40:56;12.00;99.90
9033;DHT22;4551;53.164;8.210;2022-10-04T07:43:25;12.00;99.90
9033;DHT22;4551;53.164;8.210;2022-10-04T07:45:59;12.10;99.90
9033;DHT22;4551;53.164;8.210;2022-10-04T07:48:30;12.10;99.90
9033;DHT22;4551;53.164;8.210;2022-10-04T07:51:00;12.20;99.90
9033;DHT22;4551;53.164;8.210;2022-10-04T07:53:30;12.20;99.90
9033;DHT22;4551;53.164;8.210;2022-10-04T07:56:01;12.20;99.90
9033;DHT22;4551;53.164;8.210;2022-10-04T07:58:35;12.20;99.90
9033;DHT22;4551;53.164;8.210;2022-10-04T08:01:16;12.20;99.90
9033;DHT22;4551;53.164;8.210;2022-10-04T08:03:50;12.30;99.90
9033;DHT22;4551;53.164;8.210;2022-10-04T08:06:28;12.30;99.90
9033;DHT22;4551;53.164;8.210;2022-10-04T08:09:13;12.30;99.90
9033;DHT22;4551;53.164;8.210;2022-10-04T08:11:47;12.30;99.90
9033;DHT22;4551;53.164;8.210;2022-10-04T08:14:25;12.30;99.90
9033;DHT22;4551;53.164;8.210;2022-10-04T08:16:57;12.40;99.90
9033;DHT22;4551;53.164;8.210;2022-10-04T08:19:31;12.40;99.90
9033;DHT22;4551;53.164;8.210;2022-10-04T08:22:04;12.50;99.90
9033;DHT22;4551;53.164;8.210;2022-10-04T08:24:40;12.50;99.90
9033;DHT22;4551;53.164;8.210;2022-10-04T08:27:25;12.60;99.90
9033;DHT22;4551;53.164;8.210;2022-10-04T08:30:01;12.60;99.90
9033;DHT22;4551;53.164;8.210;2022-10-04T08:32:39;12.60;99.90
9033;DHT22;4551;53.164;8.210;2022-10-04T08:38:18;12.70;99.90
9033;DHT22;4551;53.164;8.210;2022-10-04T08:41:18;12.80;99.90
9033;DHT22;4551;53.164;8.210;2022-10-04T08:43:59;12.80;99.90
9033;DHT22;4551;53.164;8.210;2022-10-04T08:46:42;12.90;99.90
9033;DHT22;4551;53.164;8.210;2022-10-04T08:49:27;13.00;99.90
9033;DHT22;4551;53.164;8.210;2022-10-04T08:52:05;13.10;99.90
9033;DHT22;4551;53.164;8.210;2022-10-04T08:54:48;13.20;99.90
9033;DHT22;4551;53.164;8.210;2022-10-04T09:00:13;13.40;99.90
9033;DHT22;4551;53.164;8.210;2022-10-04T09:02:57;13.50;99.90
9033;DHT22;4551;53.164;8.210;2022-10-04T09:05:30;13.60;99.90
9033;DHT22;4551;53.164;8.210;2022-10-04T09:08:06;13.60;99.90
9033;DHT22;4551;53.164;8.210;2022-10-04T09:10:46;13.70;99.90
9033;DHT22;4551;53.164;8.210;2022-10-04T09:13:27;14.00;99.90
9033;DHT22;4551;53.164;8.210;2022-10-04T09:16:01;13.90;99.90
9033;DHT22;4551;53.164;8.210;2022-10-04T09:18:36;13.90;99.90
9033;DHT22;4551;53.164;8.210;2022-10-04T09:21:14;14.00;99.90
9033;DHT22;4551;53.164;8.210;2022-10-04T09:23:53;14.10;99.90
9033;DHT22;4551;53.164;8.210;2022-10-04T09:26:27;14.20;99.90
9033;DHT22;4551;53.164;8.210;2022-10-04T09:34:31;14.40;99.90
9033;DHT22;4551;53.164;8.210;2022-10-04T09:37:16;14.50;99.90
9033;DHT22;4551;53.164;8.210;2022-10-04T09:39:51;14.50;99.90
9033;DHT22;4551;53.164;8.210;2022-10-04T09:42:39;14.60;99.90
9033;DHT22;4551;53.164;8.210;2022-10-04T09:48:06;14.80;99.90
9033;DHT22;4551;53.164;8.210;2022-10-04T09:53:30;14.90;99.90
9033;DHT22;4551;53.164;8.210;2022-10-04T09:56:10;15.00;99.90
9033;DHT22;4551;53.164;8.210;2022-10-04T09:58:47;15.10;99.90
9033;DHT22;4551;53.164;8.210;2022-10-04T10:01:20;15.10;99.90
9033;DHT22;4551;53.164;8.210;2022-10-04T10:03:57;15.20;99.90
9033;DHT22;4551;53.164;8.210;2022-10-04T10:06:38;15.30;99.90
9033;DHT22;4551;53.164;8.210;2022-10-04T10:09:17;15.30;99.90
9033;DHT22;4551;53.164;8.210;2022-10-04T10:11:50;15.40;99.90
9033;DHT22;4551;53.164;8.210;2022-10-04T10:14:44;15.40;99.90
9033;DHT22;4551;53.164;8.210;2022-10-04T10:17:18;15.40;99.90
9033;DHT22;4551;53.164;8.210;2022-10-04T10:22:46;15.50;99.90
9033;DHT22;4551;53.164;8.210;2022-10-04T10:25:26;15.50;99.90
9033;DHT22;4551;53.164;8.210;2022-10-04T10:28:00;15.50;99.90
9033;DHT22;4551;53.164;8.210;2022-10-04T10:30:34;15.50;99.90
9033;DHT22;4551;53.164;8.210;2022-10-04T10:36:05;15.60;99.90
9033;DHT22;4551;53.164;8.210;2022-10-04T10:38:39;15.60;99.90
9033;DHT22;4551;53.164;8.210;2022-10-04T10:41:17;15.60;99.90
9033;DHT22;4551;53.164;8.210;2022-10-04T10:46:49;15.70;99.90
9033;DHT22;4551;53.164;8.210;2022-10-04T10:49:25;15.70;99.90
9033;DHT22;4551;53.164;8.210;2022-10-04T10:55:12;15.80;99.90
9033;DHT22;4551;53.164;8.210;2022-10-04T10:57:59;15.90;99.90
9033;DHT22;4551;53.164;8.210;2022-10-04T11:00:38;16.00;99.90
9033;DHT22;4551;53.164;8.210;2022-10-04T11:03:20;16.10;99.90
9033;DHT22;4551;53.164;8.210;2022-10-04T11:06:08;16.10;99.90
9033;DHT22;4551;53.164;8.210;2022-10-04T11:11:36;16.20;99.90
9033;DHT22;4551;53.164;8.210;2022-10-04T11:14:13;16.30;99.90
9033;DHT22;4551;53.164;8.210;2022-10-04T11:17:01;16.30;99.90
9033;DHT22;4551;53.164;8.210;2022-10-04T11:25:24;16.50;99.90
9033;DHT22;4551;53.164;8.210;2022-10-04T11:28:01;16.60;99.90
9033;DHT22;4551;53.164;8.210;2022-10-04T11:30:36;16.60;99.90
9033;DHT22;4551;53.164;8.210;2022-10-04T11:33:22;16.70;99.90
9033;DHT22;4551;53.164;8.210;2022-10-04T11:39:01;16.90;99.90
9033;DHT22;4551;53.164;8.210;2022-10-04T11:41:41;17.00;99.90
9033;DHT22;4551;53.164;8.210;2022-10-04T11:47:03;17.10;99.90
9033;DHT22;4551;53.164;8.210;2022-10-04T11:49:43;17.20;99.90
9033;DHT22;4551;53.164;8.210;2022-10-04T11:52:25;17.30;99.90
9033;DHT22;4551;53.164;8.210;2022-10-04T11:57:51;17.50;99.90
9033;DHT22;4551;53.164;8.210;2022-10-04T12:00:22;17.50;99.90
9033;DHT22;4551;53.164;8.210;2022-10-04T12:02:55;17.50;99.90
9033;DHT22;4551;53.164;8.210;2022-10-04T12:05:44;17.60;99.90
9033;DHT22;4551;53.164;8.210;2022-10-04T12:08:19;17.60;99.90
9033;DHT22;4551;53.164;8.210;2022-10-04T12:10:50;17.70;99.90
9033;DHT22;4551;53.164;8.210;2022-10-04T12:13:38;17.70;99.90
9033;DHT22;4551;53.164;8.210;2022-10-04T12:19:10;18.00;99.90
9033;DHT22;4551;53.164;8.210;2022-10-04T12:21:45;18.10;99.90
9033;DHT22;4551;53.164;8.210;2022-10-04T12:24:23;18.20;99.90
9033;DHT22;4551;53.164;8.210;2022-10-04T12:27:09;18.30;99.90
9033;DHT22;4551;53.164;8.210;2022-10-04T12:32:32;18.60;99.90
9033;DHT22;4551;53.164;8.210;2022-10-04T12:35:04;18.80;99.90
9033;DHT22;4551;53.164;8.210;2022-10-04T12:37:36;18.90;99.90
9033;DHT22;4551;53.164;8.210;2022-10-04T12:42:51;19.00;99.90
9033;DHT22;4551;53.164;8.210;2022-10-04T12:45:24;19.10;99.90
9033;DHT22;4551;53.164;8.210;2022-10-04T12:48:01;19.40;99.90
9033;DHT22;4551;53.164;8.210;2022-10-04T12:50:42;19.60;99.90
9033;DHT22;4551;53.164;8.210;2022-10-04T12:53:15;19.70;99.90
9033;DHT22;4551;53.164;8.210;2022-10-04T12:55:48;19.90;99.90
9033;DHT22;4551;53.164;8.210;2022-10-04T12:58:20;20.10;99.90
9033;DHT22;4551;53.164;8.210;2022-10-04T13:00:50;20.30;99.90
9033;DHT22;4551;53.164;8.210;2022-10-04T13:03:23;20.40;99.90
9033;DHT22;4551;53.164;8.210;2022-10-04T13:05:57;20.60;99.90
9033;DHT22;4551;53.164;8.210;2022-10-04T13:08:35;20.90;99.90
9033;DHT22;4551;53.164;8.210;2022-10-04T13:11:10;20.90;99.90
9033;DHT22;4551;53.164;8.210;2022-10-04T13:13:50;21.20;99.90
9033;DHT22;4551;53.164;8.210;2022-10-04T13:16:26;21.40;99.90
9033;DHT22;4551;53.164;8.210;2022-10-04T13:19:22;21.60;99.90
9033;DHT22;4551;53.164;8.210;2022-10-04T13:24:40;22.10;99.90
9033;DHT22;4551;53.164;8.210;2022-10-04T13:27:23;22.40;99.90
9033;DHT22;4551;53.164;8.210;2022-10-04T13:29:57;22.70;99.90
9033;DHT22;4551;53.164;8.210;2022-10-04T13:32:29;22.80;99.90
9033;DHT22;4551;53.164;8.210;2022-10-04T13:35:02;22.90;99.90
9033;DHT22;4551;53.164;8.210;2022-10-04T13:37:33;23.10;99.90
9033;DHT22;4551;53.164;8.210;2022-10-04T13:40:13;23.30;99.90
9033;DHT22;4551;53.164;8.210;2022-10-04T13:42:50;23.40;99.90
9033;DHT22;4551;53.164;8.210;2022-10-04T13:45:22;23.60;99.90
9033;DHT22;4551;53.164;8.210;2022-10-04T13:47:55;23.70;99.90
9033;DHT22;4551;53.164;8.210;2022-10-04T13:50:37;23.80;99.90
9033;DHT22;4551;53.164;8.210;2022-10-04T13:53:11;23.70;99.90
9033;DHT22;4551;53.164;8.210;2022-10-04T13:56:00;23.40;99.90
9033;DHT22;4551;53.164;8.210;2022-10-04T13:58:50;23.50;99.90
9033;DHT22;4551;53.164;8.210;2022-10-04T14:01:38;23.70;99.90
9033;DHT22;4551;53.164;8.210;2022-10-04T14:04:17;23.60;99.90
9033;DHT22;4551;53.164;8.210;2022-10-04T14:09:44;23.40;99.90
9033;DHT22;4551;53.164;8.210;2022-10-04T14:15:33;23.70;99.90
9033;DHT22;4551;53.164;8.210;2022-10-04T14:18:14;23.90;99.90
9033;DHT22;4551;53.164;8.210;2022-10-04T14:21:03;24.10;99.90
9033;DHT22;4551;53.164;8.210;2022-10-04T14:23:50;24.00;99.90
9033;DHT22;4551;53.164;8.210;2022-10-04T14:26:34;24.20;99.90
9033;DHT22;4551;53.164;8.210;2022-10-04T14:29:13;23.20;99.90
9033;DHT22;4551;53.164;8.210;2022-10-04T14:31:53;24.30;99.90
9033;DHT22;4551;53.164;8.210;2022-10-04T14:37:15;24.40;99.90
9033;DHT22;4551;53.164;8.210;2022-10-04T14:39:58;24.40;99.90
9033;DHT22;4551;53.164;8.210;2022-10-04T14:45:20;24.30;99.90
9033;DHT22;4551;53.164;8.210;2022-10-04T14:48:00;23.80;99.90
9033;DHT22;4551;53.164;8.210;2022-10-04T14:50:36;23.20;99.90
9033;DHT22;4551;53.164;8.210;2022-10-04T14:53:13;23.00;99.90
9033;DHT22;4551;53.164;8.210;2022-10-04T14:55:50;22.80;99.90
9033;DHT22;4551;53.164;8.210;2022-10-04T14:58:21;22.50;99.90
9033;DHT22;4551;53.164;8.210;2022-10-04T15:01:05;22.40;99.90
9033;DHT22;4551;53.164;8.210;2022-10-04T15:03:39;22.50;99.90
9033;DHT22;4551;53.164;8.210;2022-10-04T15:06:18;22.60;99.90
9033;DHT22;4551;53.164;8.210;2022-10-04T15:11:39;22.70;99.90
9033;DHT22;4551;53.164;8.210;2022-10-04T15:14:21;22.70;99.90
9033;DHT22;4551;53.164;8.210;2022-10-04T15:16:51;22.70;99.90
9033;DHT22;4551;53.164;8.210;2022-10-04T15:19:25;22.70;99.90
9033;DHT22;4551;53.164;8.210;2022-10-04T15:21:59;22.50;99.90
9033;DHT22;4551;53.164;8.210;2022-10-04T15:24:29;22.50;99.90
9033;DHT22;4551;53.164;8.210;2022-10-04T15:27:17;22.50;99.90
9033;DHT22;4551;53.164;8.210;2022-10-04T15:29:50;22.40;99.90
9033;DHT22;4551;53.164;8.210;2022-10-04T15:32:21;22.30;99.90
9033;DHT22;4551;53.164;8.210;2022-10-04T15:34:56;22.10;99.90
9033;DHT22;4551;53.164;8.210;2022-10-04T15:37:25;22.00;99.90
9033;DHT22;4551;53.164;8.210;2022-10-04T15:42:55;21.40;99.90
9033;DHT22;4551;53.164;8.210;2022-10-04T15:45:29;21.30;99.90
9033;DHT22;4551;53.164;8.210;2022-10-04T15:48:06;21.10;99.90
9033;DHT22;4551;53.164;8.210;2022-10-04T15:50:40;20.90;99.90
9033;DHT22;4551;53.164;8.210;2022-10-04T15:53:20;20.90;99.90
9033;DHT22;4551;53.164;8.210;2022-10-04T15:55:58;20.70;99.90
9033;DHT22;4551;53.164;8.210;2022-10-04T15:58:34;20.70;99.90
9033;DHT22;4551;53.164;8.210;2022-10-04T16:01:11;20.60;99.90
9033;DHT22;4551;53.164;8.210;2022-10-04T16:03:48;20.40;99.90
9033;DHT22;4551;53.164;8.210;2022-10-04T16:06:22;20.20;99.90
9033;DHT22;4551;53.164;8.210;2022-10-04T16:09:09;20.10;99.90
9033;DHT22;4551;53.164;8.210;2022-10-04T16:11:52;19.80;99.90
9033;DHT22;4551;53.164;8.210;2022-10-04T16:14:32;19.70;99.90
9033;DHT22;4551;53.164;8.210;2022-10-04T16:17:08;19.50;99.90
9033;DHT22;4551;53.164;8.210;2022-10-04T16:19:47;19.40;99.90
9033;DHT22;4551;53.164;8.210;2022-10-04T16:22:19;19.20;99.90
9033;DHT22;4551;53.164;8.210;2022-10-04T16:24:51;19.20;99.90
9033;DHT22;4551;53.164;8.210;2022-10-04T16:27:41;18.90;99.90
9033;DHT22;4551;53.164;8.210;2022-10-04T16:30:13;18.80;99.90
9033;DHT22;4551;53.164;8.210;2022-10-04T16:33:19;18.70;99.90
9033;DHT22;4551;53.164;8.210;2022-10-04T16:35:59;18.60;99.90
9033;DHT22;4551;53.164;8.210;2022-10-04T16:38:28;18.50;99.90
9033;DHT22;4551;53.164;8.210;2022-10-04T16:41:04;18.40;99.90
9033;DHT22;4551;53.164;8.210;2022-10-04T16:43:35;18.30;99.90
9033;DHT22;4551;53.164;8.210;2022-10-04T16:46:05;18.30;99.90
9033;DHT22;4551;53.164;8.210;2022-10-04T16:48:38;18.20;99.90
9033;DHT22;4551;53.164;8.210;2022-10-04T16:51:22;18.10;99.90
9033;DHT22;4551;53.164;8.210;2022-10-04T16:53:56;17.90;99.90
9033;DHT22;4551;53.164;8.210;2022-10-04T16:56:26;17.90;99.90
9033;DHT22;4551;53.164;8.210;2022-10-04T16:58:55;17.80;99.90
9033;DHT22;4551;53.164;8.210;2022-10-04T17:01:36;17.70;99.90
9033;DHT22;4551;53.164;8.210;2022-10-04T17:04:13;17.60;99.90
9033;DHT22;4551;53.164;8.210;2022-10-04T17:06:47;17.60;99.90
9033;DHT22;4551;53.164;8.210;2022-10-04T17:09:18;17.50;99.90
9033;DHT22;4551;53.164;8.210;2022-10-04T17:12:10;17.40;99.90
9033;DHT22;4551;53.164;8.210;2022-10-04T17:14:48;17.40;99.90
9033;DHT22;4551;53.164;8.210;2022-10-04T17:17:22;17.20;99.90
9033;DHT22;4551;53.164;8.210;2022-10-04T17:19:58;17.10;99.90
9033;DHT22;4551;53.164;8.210;2022-10-04T17:22:34;17.00;99.90
9033;DHT22;4551;53.164;8.210;2022-10-04T17:25:14;17.00;99.90
9033;DHT22;4551;53.164;8.210;2022-10-04T17:27:44;16.90;99.90
9033;DHT22;4551;53.164;8.210;2022-10-04T17:30:14;16.90;99.90
9033;DHT22;4551;53.164;8.210;2022-10-04T17:32:47;16.90;99.90
9033;DHT22;4551;53.164;8.210;2022-10-04T17:35:42;16.80;99.90
9033;DHT22;4551;53.164;8.210;2022-10-04T17:38:15;16.70;99.90
9033;DHT22;4551;53.164;8.210;2022-10-04T17:40:46;16.60;99.90
9033;DHT22;4551;53.164;8.210;2022-10-04T17:43:20;16.60;99.90
9033;DHT22;4551;53.164;8.210;2022-10-04T17:45:57;16.50;99.90
9033;DHT22;4551;53.164;8.210;2022-10-04T17:48:26;16.40;99.90
9033;DHT22;4551;53.164;8.210;2022-10-04T17:51:26;16.30;99.90
9033;DHT22;4551;53.164;8.210;2022-10-04T17:54:15;16.30;99.90
9033;DHT22;4551;53.164;8.210;2022-10-04T17:57:11;16.20;99.90
9033;DHT22;4551;53.164;8.210;2022-10-04T17:59:41;16.20;99.90
9033;DHT22;4551;53.164;8.210;2022-10-04T18:02:10;16.10;99.90
9033;DHT22;4551;53.164;8.210;2022-10-04T18:04:44;16.10;99.90
9033;DHT22;4551;53.164;8.210;2022-10-04T18:07:16;16.10;99.90
9033;DHT22;4551;53.164;8.210;2022-10-04T18:09:47;16.10;99.90
9033;DHT22;4551;53.164;8.210;2022-10-04T18:12:22;16.00;99.90